If you wish to contribute or participate in the discussions about articles you are invited to join SKYbrary as a registered user

 Actions

Noi Bai International Airport

From SKYbrary Wiki

VVNB /
Revision as of 08:43, 19 August 2019 by Integration.Manager (talk | contribs)
(diff) ← Older revision | Latest revision (diff) | Newer revision → (diff)
Airport
ICAO: VVNB – IATA: HAN
Summary
Name Noi Bai International Airport
Region Asia and Pacific
Territory Vietnam VN.gif
Location Hanoi, Hanoi
Serving Hanoi
Elevation 11.887 m
39 ft11.887 m
Coordinates 21° 13' 16.00" N, 105° 48' 25.99" E
Runways
Designator Length Width Surface ROPS
11L/29R 3800 m12,467.192 ft
45 m147.638 ft
CON yes/yes
11R/29L 3800 m12,467.192 ft
45 m147.638 ft
CON yes/yes


METAR
Observation VVNB 191930Z VRB02KT 6000 FEW030 26/25 Q1011 NOSIG
Station Ha Noi
Date/Time 19 September 2019 19:30:00
Wind direction °
Wind speed 02 kts
Lowest cloud amount few clouds
Temperature 26°C
Dew point 25°C
Humidity 94%
QNH 1011 hPa
Weather condition n/a

LOS
Tag(s) Parallel Runway Operation

Description

International airport serving the city of Hanoi, Vietnam.

Climatology

Tropical savannah climate (Köppen climate classification Cwa)

Maps

Terrain

Loading map...

Airport Layout

Loading map...


Accidents & Serious Incidents at or in vicinity of VVNB

None on SKYbrary